sensor_id;sensor_type;location;lat;lon;timestamp;pressure;altitude;pressure_sealevel;temperature;humidity
20710;BME280;10516;51.518;9.864;2023-10-19T00:00:13;97236.34;;;7.05;90.10
20710;BME280;10516;51.518;9.864;2023-10-19T00:02:51;97224.69;;;7.01;90.00
20710;BME280;10516;51.518;9.864;2023-10-19T00:05:20;97228.88;;;7.47;87.79
20710;BME280;10516;51.518;9.864;2023-10-19T00:07:46;97195.44;;;6.55;90.82
20710;BME280;10516;51.518;9.864;2023-10-19T00:10:11;97227.56;;;6.79;91.53
20710;BME280;10516;51.518;9.864;2023-10-19T00:12:41;97206.34;;;6.64;91.81
20710;BME280;10516;51.518;9.864;2023-10-19T00:15:07;97210.06;;;6.78;92.32
20710;BME280;10516;51.518;9.864;2023-10-19T00:17:34;97208.19;;;6.63;93.22
20710;BME280;10516;51.518;9.864;2023-10-19T00:19:59;97199.47;;;6.98;90.24
20710;BME280;10516;51.518;9.864;2023-10-19T00:22:43;97207.91;;;7.45;88.28
20710;BME280;10516;51.518;9.864;2023-10-19T00:25:09;97186.19;;;6.93;90.48
20710;BME280;10516;51.518;9.864;2023-10-19T00:27:38;97196.78;;;7.33;88.72
20710;BME280;10516;51.518;9.864;2023-10-19T00:30:05;97183.47;;;7.53;87.65
20710;BME280;10516;51.518;9.864;2023-10-19T00:32:32;97187.78;;;6.89;91.14
20710;BME280;10516;51.518;9.864;2023-10-19T00:34:57;97174.28;;;7.01;90.46
20710;BME280;10516;51.518;9.864;2023-10-19T00:37:29;97177.44;;;7.08;90.50
20710;BME280;10516;51.518;9.864;2023-10-19T00:39:57;97158.09;;;6.62;91.96
20710;BME280;10516;51.518;9.864;2023-10-19T00:42:39;97156.25;;;6.88;91.80
20710;BME280;10516;51.518;9.864;2023-10-19T00:45:11;97143.25;;;6.86;90.91
20710;BME280;10516;51.518;9.864;2023-10-19T00:47:38;97143.72;;;7.23;90.64
20710;BME280;10516;51.518;9.864;2023-10-19T00:50:09;97139.00;;;7.05;90.13
20710;BME280;10516;51.518;9.864;2023-10-19T00:52:42;97131.59;;;6.87;90.79
20710;BME280;10516;51.518;9.864;2023-10-19T00:55:15;97132.09;;;7.09;91.61
20710;BME280;10516;51.518;9.864;2023-10-19T00:57:42;97126.19;;;7.27;89.44
20710;BME280;10516;51.518;9.864;2023-10-19T01:00:12;97124.69;;;6.96;89.90
20710;BME280;10516;51.518;9.864;2023-10-19T01:02:38;97128.28;;;7.50;88.29
20710;BME280;10516;51.518;9.864;2023-10-19T01:05:09;97115.88;;;7.26;88.30
20710;BME280;10516;51.518;9.864;2023-10-19T01:07:38;97093.69;;;6.61;91.21
20710;BME280;10516;51.518;9.864;2023-10-19T01:10:06;97108.53;;;6.57;93.29
20710;BME280;10516;51.518;9.864;2023-10-19T01:12:43;97085.72;;;6.51;93.90
20710;BME280;10516;51.518;9.864;2023-10-19T01:15:19;97080.94;;;6.73;92.47
20710;BME280;10516;51.518;9.864;2023-10-19T01:17:55;97084.94;;;6.41;94.83
20710;BME280;10516;51.518;9.864;2023-10-19T01:20:23;97084.94;;;6.56;94.45
20710;BME280;10516;51.518;9.864;2023-10-19T01:23:07;97087.81;;;6.79;91.68
20710;BME280;10516;51.518;9.864;2023-10-19T01:25:45;97087.47;;;7.31;90.15
20710;BME280;10516;51.518;9.864;2023-10-19T01:28:20;97084.78;;;7.36;89.28
20710;BME280;10516;51.518;9.864;2023-10-19T01:31:16;97060.81;;;6.62;92.22
20710;BME280;10516;51.518;9.864;2023-10-19T01:33:47;97063.66;;;7.11;91.26
20710;BME280;10516;51.518;9.864;2023-10-19T01:36:13;97071.31;;;7.23;89.58
20710;BME280;10516;51.518;9.864;2023-10-19T01:38:47;97043.81;;;6.68;92.32
20710;BME280;10516;51.518;9.864;2023-10-19T01:41:14;97059.47;;;6.85;91.11
20710;BME280;10516;51.518;9.864;2023-10-19T01:43:44;97045.38;;;7.00;91.20
20710;BME280;10516;51.518;9.864;2023-10-19T01:46:11;97035.56;;;7.05;89.73
20710;BME280;10516;51.518;9.864;2023-10-19T01:48:41;97044.34;;;6.75;91.74
20710;BME280;10516;51.518;9.864;2023-10-19T01:51:08;97049.66;;;6.75;92.16
20710;BME280;10516;51.518;9.864;2023-10-19T01:53:38;97040.19;;;7.38;90.02
20710;BME280;10516;51.518;9.864;2023-10-19T01:56:05;97032.09;;;7.05;90.11
20710;BME280;10516;51.518;9.864;2023-10-19T01:58:34;97046.13;;;7.15;90.25
20710;BME280;10516;51.518;9.864;2023-10-19T02:01:02;97047.91;;;7.30;89.32
20710;BME280;10516;51.518;9.864;2023-10-19T02:03:34;97032.72;;;7.50;88.16
20710;BME280;10516;51.518;9.864;2023-10-19T02:06:01;97025.72;;;7.65;86.97
20710;BME280;10516;51.518;9.864;2023-10-19T02:08:50;97025.66;;;7.21;88.71
20710;BME280;10516;51.518;9.864;2023-10-19T02:11:20;97016.50;;;7.57;87.07
20710;BME280;10516;51.518;9.864;2023-10-19T02:13:47;97019.38;;;7.61;88.45
20710;BME280;10516;51.518;9.864;2023-10-19T02:16:19;97022.91;;;7.51;88.78
20710;BME280;10516;51.518;9.864;2023-10-19T02:18:47;97013.81;;;7.03;89.77
20710;BME280;10516;51.518;9.864;2023-10-19T02:21:13;97005.75;;;7.23;90.68
20710;BME280;10516;51.518;9.864;2023-10-19T02:23:39;97003.84;;;7.34;89.11
20710;BME280;10516;51.518;9.864;2023-10-19T02:26:09;97000.34;;;7.43;88.61
20710;BME280;10516;51.518;9.864;2023-10-19T02:28:38;97014.13;;;7.50;89.75
20710;BME280;10516;51.518;9.864;2023-10-19T02:31:04;96986.44;;;7.08;90.11
20710;BME280;10516;51.518;9.864;2023-10-19T02:33:40;97003.00;;;7.43;88.61
20710;BME280;10516;51.518;9.864;2023-10-19T02:36:05;96995.41;;;7.22;90.57
20710;BME280;10516;51.518;9.864;2023-10-19T02:38:38;96994.00;;;7.39;90.11
20710;BME280;10516;51.518;9.864;2023-10-19T02:41:04;96981.16;;;7.62;88.64
20710;BME280;10516;51.518;9.864;2023-10-19T02:43:30;96992.25;;;7.15;90.76
20710;BME280;10516;51.518;9.864;2023-10-19T02:45:58;96977.56;;;7.42;89.03
20710;BME280;10516;51.518;9.864;2023-10-19T02:48:24;96979.44;;;7.32;91.03
20710;BME280;10516;51.518;9.864;2023-10-19T02:50:50;96977.16;;;7.64;88.59
20710;BME280;10516;51.518;9.864;2023-10-19T02:53:15;96973.50;;;7.50;89.40
20710;BME280;10516;51.518;9.864;2023-10-19T02:55:44;96980.59;;;7.65;88.45
20710;BME280;10516;51.518;9.864;2023-10-19T02:58:09;96964.38;;;7.22;90.83
20710;BME280;10516;51.518;9.864;2023-10-19T03:00:37;96961.22;;;7.15;91.97
20710;BME280;10516;51.518;9.864;2023-10-19T03:03:03;96960.41;;;7.20;90.93
20710;BME280;10516;51.518;9.864;2023-10-19T03:05:30;96953.31;;;7.54;89.45
20710;BME280;10516;51.518;9.864;2023-10-19T03:07:56;96947.78;;;7.84;88.16
20710;BME280;10516;51.518;9.864;2023-10-19T03:10:21;96958.31;;;7.61;89.57
20710;BME280;10516;51.518;9.864;2023-10-19T03:13:00;96950.72;;;7.49;90.07
20710;BME280;10516;51.518;9.864;2023-10-19T03:15:26;96956.25;;;7.52;89.92
20710;BME280;10516;51.518;9.864;2023-10-19T03:17:54;96955.16;;;7.53;89.81
20710;BME280;10516;51.518;9.864;2023-10-19T03:20:20;96964.91;;;7.68;89.13
20710;BME280;10516;51.518;9.864;2023-10-19T03:22:49;96954.03;;;7.65;89.30
20710;BME280;10516;51.518;9.864;2023-10-19T03:25:14;96958.31;;;7.61;89.00
20710;BME280;10516;51.518;9.864;2023-10-19T03:28:00;96943.16;;;7.66;88.54
20710;BME280;10516;51.518;9.864;2023-10-19T03:30:37;96952.88;;;7.37;91.05
20710;BME280;10516;51.518;9.864;2023-10-19T03:33:06;96956.31;;;7.42;90.87
20710;BME280;10516;51.518;9.864;2023-10-19T03:35:35;96950.63;;;7.64;90.24
20710;BME280;10516;51.518;9.864;2023-10-19T03:38:01;96949.00;;;7.68;89.44
20710;BME280;10516;51.518;9.864;2023-10-19T03:40:33;96943.53;;;7.88;88.53
20710;BME280;10516;51.518;9.864;2023-10-19T03:42:59;96935.09;;;7.42;90.57
20710;BME280;10516;51.518;9.864;2023-10-19T03:45:30;96937.16;;;7.84;88.75
20710;BME280;10516;51.518;9.864;2023-10-19T03:47:58;96929.50;;;7.83;89.16
20710;BME280;10516;51.518;9.864;2023-10-19T03:50:26;96927.66;;;7.78;88.69
20710;BME280;10516;51.518;9.864;2023-10-19T03:52:54;96917.28;;;7.82;89.81
20710;BME280;10516;51.518;9.864;2023-10-19T03:55:20;96925.84;;;7.74;89.63
20710;BME280;10516;51.518;9.864;2023-10-19T03:57:48;96905.88;;;7.81;88.97
20710;BME280;10516;51.518;9.864;2023-10-19T04:00:19;96901.25;;;7.58;90.50
20710;BME280;10516;51.518;9.864;2023-10-19T04:02:49;96912.75;;;7.82;89.16
20710;BME280;10516;51.518;9.864;2023-10-19T04:05:18;96915.22;;;8.07;88.78
20710;BME280;10516;51.518;9.864;2023-10-19T04:07:48;96907.19;;;8.12;88.28
20710;BME280;10516;51.518;9.864;2023-10-19T04:10:21;96912.91;;;7.96;88.21
20710;BME280;10516;51.518;9.864;2023-10-19T04:13:03;96914.59;;;8.15;87.35
20710;BME280;10516;51.518;9.864;2023-10-19T04:15:30;96921.22;;;8.18;87.58
20710;BME280;10516;51.518;9.864;2023-10-19T04:17:59;96915.19;;;8.12;88.60
20710;BME280;10516;51.518;9.864;2023-10-19T04:20:25;96905.38;;;8.08;87.92
20710;BME280;10516;51.518;9.864;2023-10-19T04:22:51;96894.97;;;8.11;87.72
20710;BME280;10516;51.518;9.864;2023-10-19T04:25:18;96910.38;;;8.14;87.92
20710;BME280;10516;51.518;9.864;2023-10-19T04:27:54;96889.81;;;7.96;88.46
20710;BME280;10516;51.518;9.864;2023-10-19T04:30:22;96888.31;;;8.14;88.25
20710;BME280;10516;51.518;9.864;2023-10-19T04:32:47;96886.97;;;8.16;88.69
20710;BME280;10516;51.518;9.864;2023-10-19T04:35:13;96884.34;;;8.11;87.92
20710;BME280;10516;51.518;9.864;2023-10-19T04:37:40;96888.00;;;8.20;87.68
20710;BME280;10516;51.518;9.864;2023-10-19T04:40:10;96882.66;;;8.25;87.39
20710;BME280;10516;51.518;9.864;2023-10-19T04:42:37;96878.91;;;8.26;87.23
20710;BME280;10516;51.518;9.864;2023-10-19T04:45:03;96881.31;;;8.23;87.67
20710;BME280;10516;51.518;9.864;2023-10-19T04:47:30;96877.75;;;8.04;88.31
20710;BME280;10516;51.518;9.864;2023-10-19T04:49:55;96884.22;;;8.26;87.76
20710;BME280;10516;51.518;9.864;2023-10-19T04:52:21;96876.38;;;8.11;88.45
20710;BME280;10516;51.518;9.864;2023-10-19T04:54:46;96881.31;;;8.23;87.79
20710;BME280;10516;51.518;9.864;2023-10-19T04:57:12;96876.75;;;8.28;87.92
20710;BME280;10516;51.518;9.864;2023-10-19T04:59:37;96869.03;;;8.32;87.24
20710;BME280;10516;51.518;9.864;2023-10-19T05:02:02;96879.13;;;8.30;88.02
20710;BME280;10516;51.518;9.864;2023-10-19T05:04:28;96873.94;;;8.15;88.35
20710;BME280;10516;51.518;9.864;2023-10-19T05:06:54;96874.06;;;8.34;87.71
20710;BME280;10516;51.518;9.864;2023-10-19T05:09:20;96870.44;;;8.19;88.59
20710;BME280;10516;51.518;9.864;2023-10-19T05:11:45;96859.25;;;8.27;88.24
20710;BME280;10516;51.518;9.864;2023-10-19T05:14:14;96863.66;;;8.37;88.57
20710;BME280;10516;51.518;9.864;2023-10-19T05:16:40;96852.03;;;8.28;88.84
20710;BME280;10516;51.518;9.864;2023-10-19T05:19:06;96843.03;;;8.24;88.42
20710;BME280;10516;51.518;9.864;2023-10-19T05:21:31;96868.50;;;8.30;88.44
20710;BME280;10516;51.518;9.864;2023-10-19T05:23:57;96856.31;;;8.24;88.27
20710;BME280;10516;51.518;9.864;2023-10-19T05:26:26;96877.41;;;8.44;87.89
20710;BME280;10516;51.518;9.864;2023-10-19T05:28:51;96847.25;;;8.30;88.34
20710;BME280;10516;51.518;9.864;2023-10-19T05:31:17;96851.59;;;8.21;89.20
20710;BME280;10516;51.518;9.864;2023-10-19T05:33:42;96814.59;;;8.01;88.81
20710;BME280;10516;51.518;9.864;2023-10-19T05:36:07;96840.50;;;8.14;89.56
20710;BME280;10516;51.518;9.864;2023-10-19T05:38:33;96858.16;;;8.28;89.03
20710;BME280;10516;51.518;9.864;2023-10-19T05:40:58;96859.63;;;8.40;88.85
20710;BME280;10516;51.518;9.864;2023-10-19T05:43:26;96864.81;;;8.26;89.68
20710;BME280;10516;51.518;9.864;2023-10-19T05:45:53;96865.75;;;8.11;90.72
20710;BME280;10516;51.518;9.864;2023-10-19T05:48:19;96856.91;;;8.21;90.77
20710;BME280;10516;51.518;9.864;2023-10-19T05:50:45;96858.91;;;8.34;89.13
20710;BME280;10516;51.518;9.864;2023-10-19T05:53:10;96855.78;;;8.27;90.16
20710;BME280;10516;51.518;9.864;2023-10-19T05:55:36;96849.69;;;8.21;89.83
20710;BME280;10516;51.518;9.864;2023-10-19T05:58:01;96866.44;;;8.27;90.76
20710;BME280;10516;51.518;9.864;2023-10-19T06:00:30;96865.38;;;8.23;89.95
20710;BME280;10516;51.518;9.864;2023-10-19T06:02:56;96864.75;;;8.36;89.50
20710;BME280;10516;51.518;9.864;2023-10-19T06:05:23;96869.97;;;8.41;89.53
20710;BME280;10516;51.518;9.864;2023-10-19T06:07:49;96868.03;;;8.52;89.25
20710;BME280;10516;51.518;9.864;2023-10-19T06:10:20;96857.47;;;8.42;89.24
20710;BME280;10516;51.518;9.864;2023-10-19T06:12:50;96865.06;;;8.53;89.30
20710;BME280;10516;51.518;9.864;2023-10-19T06:15:17;96870.69;;;8.52;88.79
20710;BME280;10516;51.518;9.864;2023-10-19T06:17:43;96880.34;;;8.43;90.17
20710;BME280;10516;51.518;9.864;2023-10-19T06:20:11;96885.53;;;8.53;89.83
20710;BME280;10516;51.518;9.864;2023-10-19T06:22:46;96878.66;;;8.52;89.58
20710;BME280;10516;51.518;9.864;2023-10-19T06:25:16;96878.31;;;8.58;89.93
20710;BME280;10516;51.518;9.864;2023-10-19T06:27:43;96860.72;;;8.62;89.88
20710;BME280;10516;51.518;9.864;2023-10-19T06:30:08;96855.09;;;8.64;89.00
20710;BME280;10516;51.518;9.864;2023-10-19T06:32:35;96868.84;;;8.71;89.35
20710;BME280;10516;51.518;9.864;2023-10-19T06:35:01;96865.94;;;8.67;89.11
20710;BME280;10516;51.518;9.864;2023-10-19T06:37:27;96862.22;;;8.68;88.70
20710;BME280;10516;51.518;9.864;2023-10-19T06:39:52;96880.50;;;8.75;88.53
20710;BME280;10516;51.518;9.864;2023-10-19T06:42:18;96876.25;;;8.74;88.73
20710;BME280;10516;51.518;9.864;2023-10-19T06:44:43;96876.09;;;8.65;89.96
20710;BME280;10516;51.518;9.864;2023-10-19T06:47:09;96875.41;;;8.78;89.33
20710;BME280;10516;51.518;9.864;2023-10-19T06:49:35;96877.03;;;8.74;89.03
20710;BME280;10516;51.518;9.864;2023-10-19T06:52:01;96875.91;;;8.80;88.74
20710;BME280;10516;51.518;9.864;2023-10-19T06:54:28;96875.91;;;8.80;88.83
20710;BME280;10516;51.518;9.864;2023-10-19T06:56:54;96879.59;;;8.84;88.67
20710;BME280;10516;51.518;9.864;2023-10-19T06:59:19;96879.50;;;8.89;89.40
20710;BME280;10516;51.518;9.864;2023-10-19T07:01:45;96873.97;;;8.86;89.41
20710;BME280;10516;51.518;9.864;2023-10-19T07:04:11;96869.38;;;8.91;88.55
20710;BME280;10516;51.518;9.864;2023-10-19T07:06:38;96867.22;;;8.93;88.52
20710;BME280;10516;51.518;9.864;2023-10-19T07:09:03;96861.13;;;8.93;88.38
20710;BME280;10516;51.518;9.864;2023-10-19T07:11:31;96878.38;;;8.95;88.99
20710;BME280;10516;51.518;9.864;2023-10-19T07:13:58;96856.81;;;8.97;88.13
20710;BME280;10516;51.518;9.864;2023-10-19T07:16:24;96861.19;;;9.06;88.49
20710;BME280;10516;51.518;9.864;2023-10-19T07:18:49;96858.03;;;9.04;88.49
20710;BME280;10516;51.518;9.864;2023-10-19T07:21:15;96873.00;;;9.19;88.38
20710;BME280;10516;51.518;9.864;2023-10-19T07:23:42;96868.47;;;9.01;89.99
20710;BME280;10516;51.518;9.864;2023-10-19T07:26:09;96865.81;;;9.20;88.37
20710;BME280;10516;51.518;9.864;2023-10-19T07:28:36;96849.13;;;9.14;88.18
20710;BME280;10516;51.518;9.864;2023-10-19T07:31:02;96858.09;;;9.18;88.14
20710;BME280;10516;51.518;9.864;2023-10-19T07:33:28;96841.63;;;9.16;88.24
20710;BME280;10516;51.518;9.864;2023-10-19T07:35:54;96851.88;;;9.28;88.78
20710;BME280;10516;51.518;9.864;2023-10-19T07:38:23;96852.94;;;9.27;88.83
20710;BME280;10516;51.518;9.864;2023-10-19T07:40:49;96847.47;;;9.18;90.72
20710;BME280;10516;51.518;9.864;2023-10-19T07:43:18;96864.00;;;9.34;89.82
20710;BME280;10516;51.518;9.864;2023-10-19T07:45:45;96856.66;;;9.44;88.88
20710;BME280;10516;51.518;9.864;2023-10-19T07:48:12;96855.88;;;9.44;88.32
20710;BME280;10516;51.518;9.864;2023-10-19T07:50:39;96861.84;;;9.54;88.81
20710;BME280;10516;51.518;9.864;2023-10-19T07:53:08;96858.53;;;9.44;89.25
20710;BME280;10516;51.518;9.864;2023-10-19T07:55:34;96844.84;;;9.50;89.85
20710;BME280;10516;51.518;9.864;2023-10-19T07:58:00;96843.94;;;9.41;89.88
20710;BME280;10516;51.518;9.864;2023-10-19T08:00:27;96836.09;;;9.50;89.98
20710;BME280;10516;51.518;9.864;2023-10-19T08:02:56;96826.38;;;9.40;90.07
20710;BME280;10516;51.518;9.864;2023-10-19T08:05:21;96824.41;;;9.46;92.30
20710;BME280;10516;51.518;9.864;2023-10-19T08:07:47;96830.22;;;9.66;89.94
20710;BME280;10516;51.518;9.864;2023-10-19T08:10:15;96821.53;;;9.61;90.55
20710;BME280;10516;51.518;9.864;2023-10-19T08:12:41;96842.16;;;9.69;89.87
20710;BME280;10516;51.518;9.864;2023-10-19T08:15:08;96817.09;;;9.70;88.77
20710;BME280;10516;51.518;9.864;2023-10-19T08:17:45;96832.63;;;9.81;89.68
20710;BME280;10516;51.518;9.864;2023-10-19T08:20:13;96832.75;;;9.90;87.81
20710;BME280;10516;51.518;9.864;2023-10-19T08:22:44;96849.97;;;10.11;87.67
20710;BME280;10516;51.518;9.864;2023-10-19T08:25:13;96847.84;;;9.95;87.19
20710;BME280;10516;51.518;9.864;2023-10-19T08:27:42;96842.63;;;10.03;85.98
20710;BME280;10516;51.518;9.864;2023-10-19T08:30:10;96853.94;;;10.14;86.63
20710;BME280;10516;51.518;9.864;2023-10-19T08:32:38;96851.63;;;10.07;86.76
20710;BME280;10516;51.518;9.864;2023-10-19T08:35:04;96840.97;;;10.07;87.78
20710;BME280;10516;51.518;9.864;2023-10-19T08:37:30;96832.06;;;9.98;86.79
20710;BME280;10516;51.518;9.864;2023-10-19T08:39:56;96853.84;;;10.19;86.00
20710;BME280;10516;51.518;9.864;2023-10-19T08:42:23;96848.22;;;10.20;86.74
20710;BME280;10516;51.518;9.864;2023-10-19T08:44:49;96842.88;;;10.20;86.94
20710;BME280;10516;51.518;9.864;2023-10-19T08:47:14;96847.94;;;10.35;85.57
20710;BME280;10516;51.518;9.864;2023-10-19T08:49:40;96850.31;;;10.23;86.36
20710;BME280;10516;51.518;9.864;2023-10-19T08:52:07;96846.16;;;10.44;85.05
20710;BME280;10516;51.518;9.864;2023-10-19T08:54:32;96856.94;;;10.39;86.61
20710;BME280;10516;51.518;9.864;2023-10-19T08:56:59;96849.13;;;10.43;85.96
20710;BME280;10516;51.518;9.864;2023-10-19T08:59:24;96853.19;;;10.40;85.57
20710;BME280;10516;51.518;9.864;2023-10-19T09:01:50;96825.03;;;10.34;85.47
20710;BME280;10516;51.518;9.864;2023-10-19T09:04:15;96839.84;;;10.40;85.93
20710;BME280;10516;51.518;9.864;2023-10-19T09:06:41;96854.47;;;10.43;87.11
20710;BME280;10516;51.518;9.864;2023-10-19T09:09:11;96852.28;;;10.45;86.45
20710;BME280;10516;51.518;9.864;2023-10-19T09:11:45;96850.34;;;10.50;85.63
20710;BME280;10516;51.518;9.864;2023-10-19T09:14:12;96846.97;;;10.45;87.38
20710;BME280;10516;51.518;9.864;2023-10-19T09:16:58;96842.81;;;10.39;86.71
20710;BME280;10516;51.518;9.864;2023-10-19T09:19:42;96843.63;;;10.39;88.84
20710;BME280;10516;51.518;9.864;2023-10-19T09:22:08;96850.59;;;10.35;87.84
20710;BME280;10516;51.518;9.864;2023-10-19T09:24:48;96839.34;;;10.38;88.16
20710;BME280;10516;51.518;9.864;2023-10-19T09:27:17;96846.84;;;10.36;90.20
20710;BME280;10516;51.518;9.864;2023-10-19T09:29:43;96833.03;;;10.34;89.35
20710;BME280;10516;51.518;9.864;2023-10-19T09:32:08;96840.16;;;10.39;88.75
20710;BME280;10516;51.518;9.864;2023-10-19T09:34:36;96854.38;;;10.48;89.06
20710;BME280;10516;51.518;9.864;2023-10-19T09:37:03;96844.59;;;10.43;90.31
20710;BME280;10516;51.518;9.864;2023-10-19T09:39:32;96854.16;;;10.44;90.24
20710;BME280;10516;51.518;9.864;2023-10-19T09:42:06;96837.88;;;10.32;89.90
20710;BME280;10516;51.518;9.864;2023-10-19T09:44:47;96832.16;;;10.39;88.99
20710;BME280;10516;51.518;9.864;2023-10-19T09:47:20;96829.41;;;10.44;90.06
20710;BME280;10516;51.518;9.864;2023-10-19T09:49:49;96830.16;;;10.44;89.41
20710;BME280;10516;51.518;9.864;2023-10-19T09:52:16;96841.94;;;10.43;89.19
20710;BME280;10516;51.518;9.864;2023-10-19T09:57:42;96825.94;;;10.43;94.64
20710;BME280;10516;51.518;9.864;2023-10-19T10:00:10;96829.50;;;10.52;92.66
20710;BME280;10516;51.518;9.864;2023-10-19T10:02:42;96821.66;;;10.56;88.79
20710;BME280;10516;51.518;9.864;2023-10-19T10:10:42;96808.50;;;10.60;95.31
20710;BME280;10516;51.518;9.864;2023-10-19T10:15:58;96810.09;;;10.74;90.25
20710;BME280;10516;51.518;9.864;2023-10-19T10:18:35;96814.75;;;10.69;90.63
20710;BME280;10516;51.518;9.864;2023-10-19T10:21:13;96825.22;;;10.79;96.49
20710;BME280;10516;51.518;9.864;2023-10-19T10:23:45;96813.66;;;10.70;97.73
20710;BME280;10516;51.518;9.864;2023-10-19T10:26:13;96818.16;;;10.96;87.68
20710;BME280;10516;51.518;9.864;2023-10-19T10:28:40;96818.38;;;10.86;87.15
20710;BME280;10516;51.518;9.864;2023-10-19T10:31:19;96808.59;;;10.82;90.42
20710;BME280;10516;51.518;9.864;2023-10-19T10:33:53;96811.97;;;10.87;89.93
20710;BME280;10516;51.518;9.864;2023-10-19T10:36:22;96814.41;;;10.97;88.64
20710;BME280;10516;51.518;9.864;2023-10-19T10:38:50;96825.25;;;11.01;91.07
20710;BME280;10516;51.518;9.864;2023-10-19T10:41:25;96817.44;;;11.04;91.75
20710;BME280;10516;51.518;9.864;2023-10-19T10:43:55;96826.44;;;11.08;94.00
20710;BME280;10516;51.518;9.864;2023-10-19T10:46:25;96791.56;;;11.05;92.75
20710;BME280;10516;51.518;9.864;2023-10-19T10:48:52;96807.91;;;11.12;92.55
20710;BME280;10516;51.518;9.864;2023-10-19T10:51:19;96813.34;;;11.20;90.77
20710;BME280;10516;51.518;9.864;2023-10-19T10:53:52;96802.38;;;11.22;90.47
20710;BME280;10516;51.518;9.864;2023-10-19T10:56:23;96790.22;;;11.38;88.20
20710;BME280;10516;51.518;9.864;2023-10-19T10:58:49;96800.91;;;11.38;89.62
20710;BME280;10516;51.518;9.864;2023-10-19T11:01:15;96805.47;;;11.38;91.71
20710;BME280;10516;51.518;9.864;2023-10-19T11:04:05;96802.59;;;11.34;89.77
20710;BME280;10516;51.518;9.864;2023-10-19T11:06:30;96790.00;;;11.48;87.90
20710;BME280;10516;51.518;9.864;2023-10-19T11:08:56;96795.44;;;11.43;87.38
20710;BME280;10516;51.518;9.864;2023-10-19T11:11:22;96790.22;;;11.38;88.84
20710;BME280;10516;51.518;9.864;2023-10-19T11:13:47;96789.47;;;11.38;92.70
20710;BME280;10516;51.518;9.864;2023-10-19T11:16:22;96781.50;;;11.46;88.43
20710;BME280;10516;51.518;9.864;2023-10-19T11:18:49;96777.59;;;11.52;97.32
20710;BME280;10516;51.518;9.864;2023-10-19T11:21:15;96771.56;;;11.47;92.61
20710;BME280;10516;51.518;9.864;2023-10-19T11:23:48;96770.91;;;11.63;92.96
20710;BME280;10516;51.518;9.864;2023-10-19T11:26:17;96769.59;;;11.74;93.44
20710;BME280;10516;51.518;9.864;2023-10-19T11:28:42;96763.81;;;11.81;88.67
20710;BME280;10516;51.518;9.864;2023-10-19T11:31:12;96769.81;;;11.86;92.35
20710;BME280;10516;51.518;9.864;2023-10-19T11:33:38;96771.06;;;11.89;93.44
20710;BME280;10516;51.518;9.864;2023-10-19T11:36:04;96778.78;;;11.90;90.04
20710;BME280;10516;51.518;9.864;2023-10-19T11:38:30;96773.44;;;11.90;90.08
20710;BME280;10516;51.518;9.864;2023-10-19T11:40:55;96762.72;;;11.82;90.59
20710;BME280;10516;51.518;9.864;2023-10-19T11:43:21;96756.22;;;11.74;93.67
20710;BME280;10516;51.518;9.864;2023-10-19T11:45:46;96773.59;;;11.85;92.09
20710;BME280;10516;51.518;9.864;2023-10-19T11:48:12;96761.94;;;11.81;88.38
20710;BME280;10516;51.518;9.864;2023-10-19T11:50:37;96763.94;;;11.76;91.70
20710;BME280;10516;51.518;9.864;2023-10-19T11:53:02;96763.47;;;11.74;89.01
20710;BME280;10516;51.518;9.864;2023-10-19T11:55:28;96774.19;;;11.82;91.98
20710;BME280;10516;51.518;9.864;2023-10-19T11:57:54;96769.31;;;11.84;93.17
20710;BME280;10516;51.518;9.864;2023-10-19T12:00:19;96772.47;;;11.86;95.77
20710;BME280;10516;51.518;9.864;2023-10-19T12:02:47;96767.94;;;11.87;91.05
20710;BME280;10516;51.518;9.864;2023-10-19T12:05:12;96770.69;;;12.04;94.13
20710;BME280;10516;51.518;9.864;2023-10-19T12:07:38;96766.41;;;11.94;96.70
20710;BME280;10516;51.518;9.864;2023-10-19T12:10:08;96759.16;;;11.95;91.28
20710;BME280;10516;51.518;9.864;2023-10-19T12:12:37;96763.31;;;12.10;94.42
20710;BME280;10516;51.518;9.864;2023-10-19T12:15:03;96765.34;;;12.04;91.49
20710;BME280;10516;51.518;9.864;2023-10-19T12:17:31;96751.66;;;12.06;93.64
20710;BME280;10516;51.518;9.864;2023-10-19T12:19:56;96764.44;;;12.17;93.16
20710;BME280;10516;51.518;9.864;2023-10-19T12:22:22;96765.09;;;12.23;94.67
20710;BME280;10516;51.518;9.864;2023-10-19T12:24:47;96756.25;;;12.14;92.10
20710;BME280;10516;51.518;9.864;2023-10-19T12:27:14;96760.03;;;12.21;90.87
20710;BME280;10516;51.518;9.864;2023-10-19T12:29:39;96758.19;;;12.30;90.85
20710;BME280;10516;51.518;9.864;2023-10-19T12:32:06;96733.97;;;12.27;90.79
20710;BME280;10516;51.518;9.864;2023-10-19T12:34:31;96743.09;;;12.34;90.57
20710;BME280;10516;51.518;9.864;2023-10-19T12:36:57;96746.75;;;12.38;93.92
20710;BME280;10516;51.518;9.864;2023-10-19T12:39:24;96738.41;;;12.40;92.00
20710;BME280;10516;51.518;9.864;2023-10-19T12:42:11;96726.44;;;12.46;92.70
20710;BME280;10516;51.518;9.864;2023-10-19T12:44:36;96731.34;;;12.61;95.01
20710;BME280;10516;51.518;9.864;2023-10-19T12:47:05;96715.16;;;12.57;96.22
20710;BME280;10516;51.518;9.864;2023-10-19T12:49:35;96724.47;;;12.94;90.43
20710;BME280;10516;51.518;9.864;2023-10-19T12:52:01;96722.09;;;12.93;88.47
20710;BME280;10516;51.518;9.864;2023-10-19T12:54:29;96722.41;;;12.91;88.96
20710;BME280;10516;51.518;9.864;2023-10-19T12:56:54;96726.34;;;12.94;88.18
20710;BME280;10516;51.518;9.864;2023-10-19T12:59:19;96733.09;;;13.00;87.44
20710;BME280;10516;51.518;9.864;2023-10-19T13:01:45;96739.44;;;12.95;88.30
20710;BME280;10516;51.518;9.864;2023-10-19T13:04:14;96738.16;;;13.01;89.96
20710;BME280;10516;51.518;9.864;2023-10-19T13:06:43;96729.34;;;12.92;88.54
20710;BME280;10516;51.518;9.864;2023-10-19T13:09:09;96729.97;;;12.98;88.53
20710;BME280;10516;51.518;9.864;2023-10-19T13:11:34;96727.59;;;12.96;90.02
20710;BME280;10516;51.518;9.864;2023-10-19T13:14:00;96735.63;;;12.96;88.45
20710;BME280;10516;51.518;9.864;2023-10-19T13:16:31;96733.59;;;13.02;91.41
20710;BME280;10516;51.518;9.864;2023-10-19T13:18:56;96728.41;;;12.97;95.62
20710;BME280;10516;51.518;9.864;2023-10-19T13:21:22;96719.56;;;12.88;95.47
20710;BME280;10516;51.518;9.864;2023-10-19T13:23:52;96733.56;;;12.85;94.78